createdAt,value
2023-07-03T00:00:13.447Z,1.95
2023-07-03T00:02:40.895Z,1.63
2023-07-03T00:05:12.428Z,1.90
2023-07-03T00:07:40.411Z,1.90
2023-07-03T00:10:08.651Z,2.03
2023-07-03T00:12:35.977Z,2.28
2023-07-03T00:15:03.146Z,1.85
2023-07-03T00:17:30.049Z,2.47
2023-07-03T00:19:56.901Z,1.30
2023-07-03T00:22:23.987Z,1.65
2023-07-03T00:24:50.807Z,1.52
2023-07-03T00:27:18.343Z,1.92
2023-07-03T00:29:45.385Z,1.77
2023-07-03T00:32:12.500Z,2.20
2023-07-03T00:34:39.428Z,2.22
2023-07-03T00:37:06.388Z,2.17
2023-07-03T00:39:33.642Z,1.67
2023-07-03T00:42:01.133Z,1.90
2023-07-03T00:44:27.989Z,2.58
2023-07-03T00:46:54.802Z,2.13
2023-07-03T00:49:21.905Z,2.45
2023-07-03T00:51:54.863Z,1.80
2023-07-03T00:54:21.955Z,2.10
2023-07-03T00:56:48.824Z,2.33
2023-07-03T00:59:16.566Z,2.00
2023-07-03T01:01:46.403Z,2.60
2023-07-03T01:04:16.631Z,3.03
2023-07-03T01:06:58.048Z,2.13
2023-07-03T01:11:54.004Z,3.05
2023-07-03T01:14:23.824Z,2.83
2023-07-03T01:16:52.068Z,2.65
2023-07-03T01:19:25.301Z,3.38
2023-07-03T01:22:25.416Z,2.90
2023-07-03T01:24:56.843Z,3.03
2023-07-03T01:27:29.583Z,2.80
2023-07-03T01:29:58.676Z,2.95
2023-07-03T01:32:29.860Z,2.90
2023-07-03T01:34:58.738Z,3.38
2023-07-03T01:37:27.832Z,2.95
2023-07-03T01:39:56.825Z,3.35
2023-07-03T01:42:26.964Z,3.28
2023-07-03T01:44:53.805Z,2.47
2023-07-03T01:47:21.673Z,2.85
2023-07-03T01:49:50.105Z,2.67
2023-07-03T01:52:16.805Z,2.60
2023-07-03T01:55:00.167Z,3.30
2023-07-03T01:57:53.764Z,3.10
2023-07-03T02:00:29.761Z,2.38
2023-07-03T02:03:00.602Z,2.78
2023-07-03T02:05:31.680Z,2.70
2023-07-03T02:08:01.768Z,2.97
2023-07-03T02:10:28.766Z,3.47
2023-07-03T02:12:55.697Z,2.60
2023-07-03T02:15:22.636Z,2.38
2023-07-03T02:17:53.385Z,2.92
2023-07-03T02:20:20.525Z,2.72
2023-07-03T02:22:47.387Z,2.78
2023-07-03T02:25:14.492Z,2.90
2023-07-03T02:27:44.426Z,3.08
2023-07-03T02:30:12.409Z,2.78
2023-07-03T02:32:41.480Z,3.00
2023-07-03T02:35:10.006Z,2.58
2023-07-03T02:37:37.788Z,2.83
2023-07-03T02:40:14.413Z,2.83
2023-07-03T02:42:41.955Z,2.88
2023-07-03T02:45:09.296Z,3.22
2023-07-03T02:47:39.659Z,3.22
2023-07-03T02:50:08.665Z,3.17
2023-07-03T02:52:35.545Z,3.28
2023-07-03T02:55:02.399Z,2.92
2023-07-03T02:57:29.732Z,2.83
2023-07-03T02:59:56.672Z,3.42
2023-07-03T03:02:23.524Z,4.45
2023-07-03T03:04:50.471Z,3.63
2023-07-03T03:07:17.336Z,3.42
2023-07-03T03:09:44.306Z,3.15
2023-07-03T03:12:11.155Z,3.50
2023-07-03T03:14:38.274Z,3.58
2023-07-03T03:17:05.288Z,3.30
2023-07-03T03:19:32.139Z,3.22
2023-07-03T03:21:58.978Z,3.05
2023-07-03T03:24:26.911Z,3.28
2023-07-03T03:26:53.765Z,3.75
2023-07-03T03:29:20.655Z,3.35
2023-07-03T03:31:47.441Z,3.67
2023-07-03T03:34:14.249Z,3.30
2023-07-03T03:36:41.448Z,3.80
2023-07-03T03:39:08.510Z,3.67
2023-07-03T03:41:35.309Z,3.30
2023-07-03T03:44:02.154Z,3.47
2023-07-03T03:46:28.976Z,3.42
2023-07-03T03:48:55.870Z,4.22
2023-07-03T03:51:23.017Z,3.95
2023-07-03T03:53:49.919Z,4.45
2023-07-03T03:56:16.784Z,4.55
2023-07-03T03:58:43.577Z,5.30
2023-07-03T04:01:10.340Z,4.55
2023-07-03T04:03:37.137Z,5.25
2023-07-03T04:06:04.034Z,5.45
2023-07-03T04:08:31.174Z,5.40
2023-07-03T04:10:58.902Z,6.80
2023-07-03T04:13:25.931Z,5.35
2023-07-03T04:15:55.919Z,5.47
2023-07-03T04:18:24.543Z,5.65
2023-07-03T04:20:52.032Z,5.05
2023-07-03T04:23:19.586Z,5.13
2023-07-03T04:25:46.472Z,5.53
2023-07-03T04:28:14.341Z,4.70
2023-07-03T04:30:41.143Z,5.80
2023-07-03T04:33:08.022Z,5.53
2023-07-03T04:35:35.014Z,5.68
2023-07-03T04:38:02.656Z,5.22
2023-07-03T04:40:31.100Z,4.60
2023-07-03T04:42:58.585Z,4.32
2023-07-03T04:45:26.963Z,3.47
2023-07-03T04:47:54.433Z,2.97
2023-07-03T04:50:26.438Z,2.90
2023-07-03T04:52:55.553Z,2.17
2023-07-03T04:55:23.671Z,2.78
2023-07-03T04:57:50.940Z,1.85
2023-07-03T05:00:20.414Z,2.10
2023-07-03T05:02:49.420Z,1.80
2023-07-03T05:05:18.473Z,1.92
2023-07-03T05:07:46.480Z,2.45
2023-07-03T05:10:15.644Z,2.35
2023-07-03T05:12:42.599Z,2.20
2023-07-03T05:15:11.030Z,2.25
2023-07-03T05:17:40.178Z,2.53
2023-07-03T05:20:15.258Z,2.53
2023-07-03T05:22:44.830Z,2.08
2023-07-03T05:25:13.627Z,1.83
2023-07-03T05:27:40.836Z,2.25
2023-07-03T05:30:09.565Z,2.60
2023-07-03T05:32:37.256Z,1.67
2023-07-03T05:35:05.436Z,2.08
2023-07-03T05:37:33.328Z,1.90
2023-07-03T05:40:00.248Z,1.75
2023-07-03T05:42:27.202Z,1.40
2023-07-03T05:44:53.984Z,2.00
2023-07-03T05:47:20.887Z,1.90
2023-07-03T05:49:49.742Z,1.30
2023-07-03T05:52:16.756Z,1.50
2023-07-03T05:54:43.532Z,1.70
2023-07-03T05:57:12.233Z,1.77
2023-07-03T05:59:41.179Z,1.38
2023-07-03T06:02:12.918Z,1.95
2023-07-03T06:04:40.071Z,1.42
2023-07-03T06:07:07.875Z,1.73
2023-07-03T06:09:36.533Z,1.60
2023-07-03T06:12:05.213Z,1.65
2023-07-03T06:14:33.285Z,1.45
2023-07-03T06:17:00.724Z,1.77
2023-07-03T06:19:29.539Z,2.05
2023-07-03T06:21:56.850Z,1.42
2023-07-03T06:24:23.960Z,1.27
2023-07-03T06:26:52.340Z,1.20
2023-07-03T06:29:19.686Z,1.40
2023-07-03T06:31:46.709Z,1.30
2023-07-03T06:34:13.609Z,1.20
2023-07-03T06:36:40.721Z,2.03
2023-07-03T06:39:09.568Z,1.38
2023-07-03T06:41:37.067Z,1.10
2023-07-03T06:44:05.410Z,1.10
2023-07-03T06:46:32.543Z,1.30
2023-07-03T06:48:59.482Z,1.40
2023-07-03T06:51:26.659Z,1.25
2023-07-03T06:53:53.527Z,1.33
2023-07-03T06:56:21.249Z,0.98
2023-07-03T06:58:51.957Z,1.70
2023-07-03T07:01:30.056Z,1.08
2023-07-03T07:03:57.611Z,0.95
2023-07-03T07:06:30.397Z,1.00
2023-07-03T07:08:58.049Z,1.77
2023-07-03T07:11:31.959Z,1.13
2023-07-03T07:14:00.635Z,1.05
2023-07-03T07:16:33.200Z,1.33
2023-07-03T07:19:04.910Z,1.48
2023-07-03T07:21:34.989Z,0.90
2023-07-03T07:24:12.600Z,0.90
2023-07-03T07:26:39.482Z,1.10
2023-07-03T07:29:06.287Z,1.30
2023-07-03T07:31:33.383Z,0.80
2023-07-03T07:34:00.249Z,0.82
2023-07-03T07:36:27.887Z,0.77
2023-07-03T07:38:56.631Z,0.90
2023-07-03T07:41:26.718Z,0.70
2023-07-03T07:43:54.907Z,0.88
2023-07-03T07:46:26.566Z,0.50
2023-07-03T07:48:53.724Z,0.73
2023-07-03T07:51:20.522Z,0.70
2023-07-03T07:53:47.393Z,0.60
2023-07-03T07:56:15.182Z,0.60
2023-07-03T07:58:41.973Z,0.70
2023-07-03T08:01:12.211Z,0.95
2023-07-03T08:03:40.915Z,1.25
2023-07-03T08:06:07.898Z,0.55
2023-07-03T08:08:35.129Z,0.80
2023-07-03T08:11:05.290Z,1.05
2023-07-03T08:13:34.142Z,0.80
2023-07-03T08:16:01.335Z,1.15
2023-07-03T08:18:28.919Z,0.80
2023-07-03T08:20:55.869Z,1.25
2023-07-03T08:23:23.103Z,1.00
2023-07-03T08:25:52.514Z,1.00
2023-07-03T08:28:19.680Z,1.08
2023-07-03T08:30:47.518Z,1.33
2023-07-03T08:33:15.665Z,1.20
2023-07-03T08:38:12.920Z,1.48
2023-07-03T08:40:40.161Z,1.10
2023-07-03T08:43:12.230Z,1.30
2023-07-03T08:45:42.668Z,1.20
2023-07-03T08:48:18.183Z,1.73
2023-07-03T08:50:48.774Z,1.48
2023-07-03T08:53:20.643Z,1.23
2023-07-03T08:55:54.500Z,1.17
2023-07-03T08:58:21.502Z,1.02
2023-07-03T09:01:13.154Z,1.52
2023-07-03T09:04:07.309Z,1.30
2023-07-03T09:07:06.616Z,1.70
2023-07-03T09:09:58.910Z,1.30
2023-07-03T09:12:31.674Z,1.10
2023-07-03T09:15:07.479Z,1.20
2023-07-03T09:17:35.544Z,1.35
2023-07-03T09:20:05.348Z,1.13
2023-07-03T09:22:53.990Z,1.33
2023-07-03T09:25:46.668Z,1.80
2023-07-03T09:28:13.865Z,1.10
2023-07-03T09:30:40.977Z,1.45
2023-07-03T09:33:08.412Z,1.63
2023-07-03T09:35:37.810Z,1.83
2023-07-03T09:38:10.502Z,2.10
2023-07-03T09:40:39.782Z,1.63
2023-07-03T09:43:14.961Z,2.00
2023-07-03T09:45:44.461Z,2.05
2023-07-03T09:48:23.085Z,2.63
2023-07-03T09:51:05.679Z,2.15
2023-07-03T09:53:40.108Z,1.85
2023-07-03T09:56:17.330Z,2.33
2023-07-03T09:58:50.765Z,1.92
2023-07-03T10:07:07.878Z,1.50
2023-07-03T10:12:13.465Z,1.98
2023-07-03T10:14:40.700Z,2.03
2023-07-03T10:17:13.850Z,1.63
2023-07-03T10:19:44.727Z,2.42
2023-07-03T10:22:15.573Z,1.60
2023-07-03T10:24:44.186Z,2.20
2023-07-03T10:27:14.659Z,1.50
2023-07-03T10:29:47.884Z,2.10
2023-07-03T10:32:17.377Z,1.40
2023-07-03T10:34:58.897Z,1.88
2023-07-03T10:37:27.444Z,1.50
2023-07-03T10:40:01.627Z,1.20
2023-07-03T10:42:38.293Z,1.50
2023-07-03T10:45:14.679Z,2.22
2023-07-03T10:47:50.029Z,1.80
2023-07-03T10:50:20.361Z,1.65
2023-07-03T10:53:03.841Z,2.00
2023-07-03T10:55:43.576Z,1.77
2023-07-03T10:58:22.574Z,2.33
2023-07-03T11:01:19.855Z,3.47
2023-07-03T11:04:15.905Z,2.88
2023-07-03T11:07:14.972Z,2.28
2023-07-03T11:09:50.240Z,2.00
2023-07-03T11:12:43.970Z,2.20
2023-07-03T11:15:38.772Z,2.20
2023-07-03T11:24:07.761Z,2.15
2023-07-03T11:29:14.827Z,1.80
2023-07-03T11:31:44.546Z,1.85
2023-07-03T11:36:57.178Z,1.45
2023-07-03T11:44:47.668Z,1.33
2023-07-03T11:47:24.212Z,1.40
2023-07-03T11:49:54.843Z,2.22
2023-07-03T11:52:32.279Z,2.15
2023-07-03T11:55:06.912Z,1.63
2023-07-03T11:57:38.008Z,1.63
2023-07-03T12:02:49.986Z,1.35
2023-07-03T12:05:50.999Z,1.02
2023-07-03T12:08:24.222Z,1.25
2023-07-03T12:10:51.025Z,1.23
2023-07-03T12:13:28.258Z,1.20
2023-07-03T12:15:59.963Z,1.77
2023-07-03T12:18:27.393Z,1.48
2023-07-03T12:21:03.113Z,1.70
2023-07-03T12:23:33.019Z,1.67
2023-07-03T12:26:02.985Z,2.40
2023-07-03T12:28:30.200Z,1.40
2023-07-03T12:31:23.270Z,1.40
2023-07-03T12:33:59.228Z,1.98
2023-07-03T12:36:38.666Z,1.35
2023-07-03T12:39:16.071Z,1.35
2023-07-03T12:41:43.093Z,1.42
2023-07-03T12:44:14.503Z,1.45
2023-07-03T12:46:45.835Z,1.77
2023-07-03T12:49:15.553Z,1.27
2023-07-03T12:51:51.521Z,1.30
2023-07-03T12:54:18.984Z,1.50
2023-07-03T12:56:46.367Z,1.02
2023-07-03T12:59:17.824Z,1.50
2023-07-03T13:01:53.318Z,1.40
2023-07-03T13:04:34.544Z,1.55
2023-07-03T13:07:03.782Z,1.50
2023-07-03T13:09:32.981Z,1.83
2023-07-03T13:12:00.026Z,1.55
2023-07-03T13:14:29.308Z,1.73
2023-07-03T13:17:02.422Z,1.30
2023-07-03T13:19:36.636Z,1.25
2023-07-03T13:22:11.021Z,1.75
2023-07-03T13:24:49.060Z,1.77
2023-07-03T13:27:24.732Z,1.10
2023-07-03T13:29:58.896Z,1.42
2023-07-03T13:32:26.801Z,1.70
2023-07-03T13:34:56.841Z,1.10
2023-07-03T13:37:26.672Z,1.85
2023-07-03T13:40:01.293Z,1.13
2023-07-03T13:42:30.363Z,1.20
2023-07-03T13:44:57.119Z,1.63
2023-07-03T13:47:26.550Z,1.38
2023-07-03T13:49:55.419Z,1.10
2023-07-03T13:52:22.207Z,1.60
2023-07-03T13:54:49.225Z,1.10
2023-07-03T13:57:16.088Z,1.33
2023-07-03T13:59:42.876Z,1.63
2023-07-03T14:02:09.673Z,1.50
2023-07-03T14:04:36.680Z,1.17
2023-07-03T14:07:03.609Z,1.50
2023-07-03T14:09:30.385Z,1.40
2023-07-03T14:11:57.303Z,1.63
2023-07-03T14:14:24.471Z,1.63
2023-07-03T14:16:53.040Z,1.63
2023-07-03T14:19:20.156Z,1.48
2023-07-03T14:21:46.923Z,1.60
2023-07-03T14:24:13.790Z,1.88
2023-07-03T14:26:41.493Z,1.75
2023-07-03T14:29:08.316Z,1.67
2023-07-03T14:31:36.162Z,2.20
2023-07-03T14:34:03.149Z,1.52
2023-07-03T14:36:29.947Z,1.80
2023-07-03T14:38:56.710Z,1.73
2023-07-03T14:41:23.737Z,1.63
2023-07-03T14:43:50.664Z,1.88
2023-07-03T14:46:17.501Z,1.65
2023-07-03T14:48:44.364Z,1.67
2023-07-03T14:51:11.231Z,1.65
2023-07-03T14:53:38.462Z,1.45
2023-07-03T14:56:06.008Z,1.40
2023-07-03T14:58:32.613Z,1.60
2023-07-03T15:01:03.760Z,1.92
2023-07-03T15:03:31.656Z,2.08
2023-07-03T15:05:58.730Z,1.30
2023-07-03T15:08:27.139Z,1.42
2023-07-03T15:10:54.234Z,1.40
2023-07-03T15:13:21.072Z,1.67
2023-07-03T15:15:49.941Z,1.17
2023-07-03T15:18:17.238Z,1.48
2023-07-03T15:20:44.232Z,1.65
2023-07-03T15:23:11.067Z,1.55
2023-07-03T15:25:38.015Z,2.25
2023-07-03T15:28:04.998Z,1.50
2023-07-03T15:30:31.807Z,1.13
2023-07-03T15:32:58.635Z,2.33
2023-07-03T15:35:25.419Z,1.67
2023-07-03T15:37:52.289Z,1.20
2023-07-03T15:40:19.147Z,1.95
2023-07-03T15:42:46.847Z,1.60
2023-07-03T15:45:14.576Z,1.60
2023-07-03T15:47:45.034Z,2.70
2023-07-03T15:50:11.983Z,1.77
2023-07-03T15:52:38.728Z,1.85
2023-07-03T15:55:06.241Z,2.35
2023-07-03T15:57:33.070Z,3.45
2023-07-03T16:00:00.165Z,1.90
2023-07-03T16:02:27.011Z,1.70
2023-07-03T16:04:54.583Z,2.03
2023-07-03T16:07:21.346Z,1.60
2023-07-03T16:09:48.151Z,2.10
2023-07-03T16:12:15.772Z,1.80
2023-07-03T16:14:43.775Z,1.90
2023-07-03T16:17:10.665Z,1.52
2023-07-03T16:19:37.607Z,1.90
2023-07-03T16:22:04.712Z,2.08
2023-07-03T16:24:31.772Z,2.55
2023-07-03T16:26:58.609Z,2.05
2023-07-03T16:29:25.478Z,2.22
2023-07-03T16:31:54.267Z,1.88
2023-07-03T16:34:21.141Z,1.75
2023-07-03T16:36:47.979Z,1.63
2023-07-03T16:39:17.364Z,1.60
2023-07-03T16:41:44.280Z,1.65
2023-07-03T16:44:11.128Z,1.70
2023-07-03T16:46:40.120Z,2.05
2023-07-03T16:49:07.908Z,2.47
2023-07-03T16:51:34.691Z,1.65
2023-07-03T16:54:02.487Z,1.92
2023-07-03T16:56:29.799Z,1.85
2023-07-03T16:58:59.144Z,1.40
2023-07-03T17:01:29.610Z,1.38
2023-07-03T17:03:57.406Z,1.20
2023-07-03T17:06:32.898Z,0.85
2023-07-03T17:09:01.047Z,1.10
2023-07-03T17:11:28.254Z,1.20
2023-07-03T17:13:55.572Z,1.85
2023-07-03T17:16:22.869Z,1.30
2023-07-03T17:18:49.877Z,1.48
2023-07-03T17:21:16.943Z,1.50
2023-07-03T17:23:44.512Z,1.73
2023-07-03T17:26:12.274Z,1.35
2023-07-03T17:28:39.597Z,1.25
2023-07-03T17:31:06.669Z,1.35
2023-07-03T17:33:33.977Z,1.42
2023-07-03T17:36:02.987Z,1.52
2023-07-03T17:38:30.484Z,1.30
2023-07-03T17:40:57.294Z,1.55
2023-07-03T17:43:24.335Z,1.63
2023-07-03T17:45:54.290Z,1.35
2023-07-03T17:48:22.386Z,1.92
2023-07-03T17:50:51.175Z,1.60
2023-07-03T17:53:22.097Z,1.45
2023-07-03T17:55:49.270Z,1.10
2023-07-03T17:58:16.689Z,1.50
2023-07-03T18:00:43.477Z,1.38
2023-07-03T18:03:10.420Z,1.25
2023-07-03T18:05:37.764Z,1.38
2023-07-03T18:08:05.315Z,1.27
2023-07-03T18:10:34.225Z,1.63
2023-07-03T18:13:01.900Z,0.88
2023-07-03T18:15:43.637Z,1.13
2023-07-03T18:18:15.713Z,1.35
2023-07-03T18:20:42.560Z,0.98
2023-07-03T18:23:09.894Z,0.85
2023-07-03T18:25:36.816Z,1.10
2023-07-03T18:28:04.721Z,1.00
2023-07-03T18:30:31.889Z,1.08
2023-07-03T18:32:58.811Z,1.15
2023-07-03T18:35:25.887Z,1.20
2023-07-03T18:37:53.435Z,1.27
2023-07-03T18:40:20.609Z,1.30
2023-07-03T18:42:47.356Z,1.67
2023-07-03T18:45:14.280Z,1.55
2023-07-03T18:47:41.228Z,1.50
2023-07-03T18:50:08.840Z,2.08
2023-07-03T18:52:35.671Z,1.90
2023-07-03T18:55:02.533Z,2.00
2023-07-03T18:57:29.284Z,2.22
2023-07-03T18:59:56.031Z,2.15
2023-07-03T19:02:22.823Z,1.67
2023-07-03T19:04:49.749Z,2.13
2023-07-03T19:07:16.541Z,1.75
2023-07-03T19:09:43.417Z,1.63
2023-07-03T19:12:10.334Z,2.10
2023-07-03T19:14:37.243Z,2.08
2023-07-03T19:17:05.146Z,1.65
2023-07-03T19:19:32.024Z,1.65
2023-07-03T19:21:58.815Z,1.85
2023-07-03T19:24:25.605Z,1.65
2023-07-03T19:26:52.456Z,1.70
2023-07-03T19:29:19.416Z,2.00
2023-07-03T19:31:46.290Z,1.52
2023-07-03T19:34:13.108Z,1.85
2023-07-03T19:36:39.976Z,1.77
2023-07-03T19:39:06.814Z,1.35
2023-07-03T19:41:33.569Z,1.92
2023-07-03T19:44:01.388Z,2.08
2023-07-03T19:46:28.210Z,1.92
2023-07-03T19:48:58.268Z,1.50
2023-07-03T19:51:25.275Z,1.92
2023-07-03T19:53:52.068Z,2.45
2023-07-03T19:56:21.360Z,1.73
2023-07-03T19:58:51.381Z,2.22
2023-07-03T20:01:18.759Z,1.73
2023-07-03T20:03:45.987Z,2.45
2023-07-03T20:06:14.988Z,1.67
2023-07-03T20:08:41.865Z,1.67
2023-07-03T20:11:10.190Z,1.50
2023-07-03T20:13:37.302Z,1.60
2023-07-03T20:16:04.495Z,1.73
2023-07-03T20:18:32.706Z,2.03
2023-07-03T20:21:04.063Z,1.85
2023-07-03T20:23:31.219Z,1.73
2023-07-03T20:25:58.968Z,1.77
2023-07-03T20:28:26.352Z,2.05
2023-07-03T20:30:55.184Z,1.92
2023-07-03T20:33:22.314Z,1.83
2023-07-03T20:36:03.607Z,1.85
2023-07-03T20:38:31.048Z,2.00
2023-07-03T20:41:00.766Z,1.70
2023-07-03T20:43:28.538Z,1.90
2023-07-03T20:46:04.934Z,1.60
2023-07-03T20:48:33.279Z,1.70
2023-07-03T20:51:03.572Z,2.00
2023-07-03T20:53:40.957Z,1.88
2023-07-03T20:56:09.578Z,1.98
2023-07-03T20:58:41.446Z,1.75
2023-07-03T21:01:15.099Z,2.40
2023-07-03T21:03:46.752Z,1.83
2023-07-03T21:06:18.870Z,2.00
2023-07-03T21:08:46.934Z,1.77
2023-07-03T21:11:16.578Z,2.33
2023-07-03T21:13:45.086Z,2.00
2023-07-03T21:16:14.494Z,1.90
2023-07-03T21:18:42.361Z,1.60
2023-07-03T21:21:13.298Z,2.25
2023-07-03T21:23:40.690Z,2.15
2023-07-03T21:26:08.472Z,1.70
2023-07-03T21:28:35.444Z,1.70
2023-07-03T21:31:02.305Z,2.10
2023-07-03T21:33:30.267Z,2.30
2023-07-03T21:36:16.304Z,1.70
2023-07-03T21:38:43.968Z,1.85
2023-07-03T21:41:16.310Z,1.85
2023-07-03T21:43:50.172Z,3.47
2023-07-03T21:46:19.324Z,2.42
2023-07-03T21:48:46.947Z,2.05
2023-07-03T21:51:18.684Z,2.67
2023-07-03T21:53:49.382Z,1.90
2023-07-03T21:56:20.942Z,2.65
2023-07-03T21:58:50.782Z,1.92
2023-07-03T22:01:31.382Z,1.92
2023-07-03T22:03:59.352Z,2.47
2023-07-03T22:06:27.703Z,2.10
2023-07-03T22:08:55.784Z,2.33
2023-07-03T22:11:23.679Z,2.17
2023-07-03T22:13:50.903Z,2.10
2023-07-03T22:16:18.855Z,2.15
2023-07-03T22:18:46.198Z,2.55
2023-07-03T22:21:13.788Z,2.70
2023-07-03T22:23:40.631Z,2.28
2023-07-03T22:26:08.374Z,2.83
2023-07-03T22:28:35.189Z,2.25
2023-07-03T22:31:02.158Z,2.55
2023-07-03T22:33:30.343Z,2.22
2023-07-03T22:35:57.137Z,2.70
2023-07-03T22:38:24.044Z,2.72
2023-07-03T22:40:51.714Z,3.30
2023-07-03T22:43:20.379Z,2.10
2023-07-03T22:45:47.910Z,2.25
2023-07-03T22:48:14.874Z,2.60
2023-07-03T22:50:42.975Z,2.47
2023-07-03T22:53:11.142Z,2.55
2023-07-03T22:55:41.734Z,2.17
2023-07-03T22:58:11.911Z,3.27
2023-07-03T23:00:40.164Z,2.72
2023-07-03T23:03:08.195Z,2.55
2023-07-03T23:05:40.393Z,2.50
2023-07-03T23:08:07.259Z,2.75
2023-07-03T23:10:34.114Z,3.15
2023-07-03T23:13:00.953Z,2.10
2023-07-03T23:15:28.313Z,3.03
2023-07-03T23:17:55.152Z,2.95
2023-07-03T23:20:22.585Z,2.45
2023-07-03T23:22:49.403Z,2.58
2023-07-03T23:25:16.373Z,2.70
2023-07-03T23:27:44.703Z,2.25
2023-07-03T23:30:11.778Z,2.40
2023-07-03T23:32:39.176Z,3.10
2023-07-03T23:35:06.564Z,2.33
2023-07-03T23:37:33.370Z,2.05
2023-07-03T23:40:01.066Z,1.95
2023-07-03T23:42:27.956Z,2.17
2023-07-03T23:44:54.749Z,2.20
2023-07-03T23:47:21.744Z,2.35
2023-07-03T23:49:50.519Z,1.77
2023-07-03T23:52:17.396Z,2.00
2023-07-03T23:54:44.188Z,2.03
2023-07-03T23:57:12.197Z,1.55
2023-07-03T23:59:39.013Z,2.53
